sensor_id;sensor_type;location;lat;lon;timestamp;P1;durP1;ratioP1;P2;durP2;ratioP2
64875;SDS011;51369;49.862;9.908;2024-02-16T00:00:17;9.02;;;5.18;;
64875;SDS011;51369;49.862;9.908;2024-02-16T00:02:43;13.23;;;6.32;;
64875;SDS011;51369;49.862;9.908;2024-02-16T00:05:09;9.95;;;6.47;;
64875;SDS011;51369;49.862;9.908;2024-02-16T00:07:37;11.75;;;7.13;;
64875;SDS011;51369;49.862;9.908;2024-02-16T00:10:03;13.48;;;7.15;;
64875;SDS011;51369;49.862;9.908;2024-02-16T00:12:30;12.48;;;6.80;;
64875;SDS011;51369;49.862;9.908;2024-02-16T00:14:57;10.65;;;5.78;;
64875;SDS011;51369;49.862;9.908;2024-02-16T00:17:22;9.88;;;5.78;;
64875;SDS011;51369;49.862;9.908;2024-02-16T00:19:51;12.02;;;5.32;;
64875;SDS011;51369;49.862;9.908;2024-02-16T00:22:17;10.43;;;5.30;;
64875;SDS011;51369;49.862;9.908;2024-02-16T00:24:43;8.88;;;4.82;;
64875;SDS011;51369;49.862;9.908;2024-02-16T00:27:08;10.50;;;5.50;;
64875;SDS011;51369;49.862;9.908;2024-02-16T00:29:33;8.15;;;4.97;;
64875;SDS011;51369;49.862;9.908;2024-02-16T00:31:59;11.35;;;5.47;;
64875;SDS011;51369;49.862;9.908;2024-02-16T00:34:24;8.98;;;5.10;;
64875;SDS011;51369;49.862;9.908;2024-02-16T00:36:50;12.98;;;5.03;;
64875;SDS011;51369;49.862;9.908;2024-02-16T00:39:16;8.35;;;5.47;;
64875;SDS011;51369;49.862;9.908;2024-02-16T00:41:41;7.63;;;5.05;;
64875;SDS011;51369;49.862;9.908;2024-02-16T00:44:07;8.88;;;5.40;;
64875;SDS011;51369;49.862;9.908;2024-02-16T00:46:33;11.23;;;5.93;;
64875;SDS011;51369;49.862;9.908;2024-02-16T00:49:01;9.38;;;5.35;;
64875;SDS011;51369;49.862;9.908;2024-02-16T00:51:26;10.02;;;5.47;;
64875;SDS011;51369;49.862;9.908;2024-02-16T00:53:52;10.52;;;5.07;;
64875;SDS011;51369;49.862;9.908;2024-02-16T00:56:18;6.40;;;5.35;;
64875;SDS011;51369;49.862;9.908;2024-02-16T00:58:43;13.15;;;5.38;;
64875;SDS011;51369;49.862;9.908;2024-02-16T01:01:08;10.80;;;4.82;;
64875;SDS011;51369;49.862;9.908;2024-02-16T01:03:36;10.40;;;6.03;;
64875;SDS011;51369;49.862;9.908;2024-02-16T01:06:03;7.82;;;5.38;;
64875;SDS011;51369;49.862;9.908;2024-02-16T01:08:28;9.80;;;5.80;;
64875;SDS011;51369;49.862;9.908;2024-02-16T01:10:54;7.80;;;5.40;;
64875;SDS011;51369;49.862;9.908;2024-02-16T01:13:20;8.60;;;5.32;;
64875;SDS011;51369;49.862;9.908;2024-02-16T01:15:45;10.68;;;5.75;;
64875;SDS011;51369;49.862;9.908;2024-02-16T01:18:11;9.30;;;5.65;;
64875;SDS011;51369;49.862;9.908;2024-02-16T01:20:36;8.68;;;5.38;;
64875;SDS011;51369;49.862;9.908;2024-02-16T01:23:02;10.82;;;5.93;;
64875;SDS011;51369;49.862;9.908;2024-02-16T01:25:28;7.35;;;5.07;;
64875;SDS011;51369;49.862;9.908;2024-02-16T01:27:53;8.95;;;5.28;;
64875;SDS011;51369;49.862;9.908;2024-02-16T01:30:18;13.45;;;6.40;;
64875;SDS011;51369;49.862;9.908;2024-02-16T01:32:45;10.90;;;5.80;;
64875;SDS011;51369;49.862;9.908;2024-02-16T01:35:10;11.23;;;5.63;;
64875;SDS011;51369;49.862;9.908;2024-02-16T01:37:36;8.23;;;5.25;;
64875;SDS011;51369;49.862;9.908;2024-02-16T01:40:01;8.73;;;5.68;;
64875;SDS011;51369;49.862;9.908;2024-02-16T01:42:28;10.57;;;5.20;;
64875;SDS011;51369;49.862;9.908;2024-02-16T01:44:53;9.80;;;5.38;;
64875;SDS011;51369;49.862;9.908;2024-02-16T01:47:18;10.55;;;5.95;;
64875;SDS011;51369;49.862;9.908;2024-02-16T01:49:44;6.80;;;4.85;;
64875;SDS011;51369;49.862;9.908;2024-02-16T01:52:10;11.73;;;5.63;;
64875;SDS011;51369;49.862;9.908;2024-02-16T01:54:36;14.02;;;6.68;;
64875;SDS011;51369;49.862;9.908;2024-02-16T01:57:02;10.23;;;5.25;;
64875;SDS011;51369;49.862;9.908;2024-02-16T01:59:31;7.85;;;5.38;;
64875;SDS011;51369;49.862;9.908;2024-02-16T02:01:58;6.97;;;4.72;;
64875;SDS011;51369;49.862;9.908;2024-02-16T02:04:24;8.95;;;4.65;;
64875;SDS011;51369;49.862;9.908;2024-02-16T02:06:50;6.82;;;5.07;;
64875;SDS011;51369;49.862;9.908;2024-02-16T02:09:16;8.07;;;4.93;;
64875;SDS011;51369;49.862;9.908;2024-02-16T02:11:41;8.55;;;4.38;;
64875;SDS011;51369;49.862;9.908;2024-02-16T02:14:07;8.35;;;5.10;;
64875;SDS011;51369;49.862;9.908;2024-02-16T02:16:33;11.48;;;5.32;;
64875;SDS011;51369;49.862;9.908;2024-02-16T02:18:58;8.98;;;5.47;;
64875;SDS011;51369;49.862;9.908;2024-02-16T02:21:23;7.95;;;5.47;;
64875;SDS011;51369;49.862;9.908;2024-02-16T02:23:49;8.93;;;5.22;;
64875;SDS011;51369;49.862;9.908;2024-02-16T02:26:14;8.63;;;5.43;;
64875;SDS011;51369;49.862;9.908;2024-02-16T02:28:42;8.73;;;5.47;;
64875;SDS011;51369;49.862;9.908;2024-02-16T02:31:07;10.20;;;5.10;;
64875;SDS011;51369;49.862;9.908;2024-02-16T02:33:34;9.18;;;4.95;;
64875;SDS011;51369;49.862;9.908;2024-02-16T02:36:00;7.47;;;5.28;;
64875;SDS011;51369;49.862;9.908;2024-02-16T02:38:26;10.35;;;6.22;;
64875;SDS011;51369;49.862;9.908;2024-02-16T02:40:51;7.10;;;5.70;;
64875;SDS011;51369;49.862;9.908;2024-02-16T02:43:17;8.48;;;5.65;;
64875;SDS011;51369;49.862;9.908;2024-02-16T02:45:44;8.50;;;5.78;;
64875;SDS011;51369;49.862;9.908;2024-02-16T02:48:09;10.98;;;5.75;;
64875;SDS011;51369;49.862;9.908;2024-02-16T02:50:35;9.57;;;5.57;;
64875;SDS011;51369;49.862;9.908;2024-02-16T02:53:00;7.57;;;5.53;;
64875;SDS011;51369;49.862;9.908;2024-02-16T02:55:26;8.63;;;5.85;;
64875;SDS011;51369;49.862;9.908;2024-02-16T02:57:52;12.73;;;5.72;;
64875;SDS011;51369;49.862;9.908;2024-02-16T03:00:17;8.07;;;5.43;;
64875;SDS011;51369;49.862;9.908;2024-02-16T03:02:44;12.15;;;5.72;;
64875;SDS011;51369;49.862;9.908;2024-02-16T03:05:09;7.68;;;5.43;;
64875;SDS011;51369;49.862;9.908;2024-02-16T03:07:36;9.90;;;5.45;;
64875;SDS011;51369;49.862;9.908;2024-02-16T03:10:01;8.73;;;5.72;;
64875;SDS011;51369;49.862;9.908;2024-02-16T03:12:28;8.38;;;5.63;;
64875;SDS011;51369;49.862;9.908;2024-02-16T03:14:53;12.45;;;6.75;;
64875;SDS011;51369;49.862;9.908;2024-02-16T03:17:18;9.48;;;5.53;;
64875;SDS011;51369;49.862;9.908;2024-02-16T03:19:44;8.90;;;5.43;;
64875;SDS011;51369;49.862;9.908;2024-02-16T03:22:10;8.52;;;5.75;;
64875;SDS011;51369;49.862;9.908;2024-02-16T03:24:35;7.55;;;6.45;;
64875;SDS011;51369;49.862;9.908;2024-02-16T03:27:00;9.68;;;5.60;;
64875;SDS011;51369;49.862;9.908;2024-02-16T03:29:26;9.02;;;5.43;;
64875;SDS011;51369;49.862;9.908;2024-02-16T03:31:52;8.57;;;5.30;;
64875;SDS011;51369;49.862;9.908;2024-02-16T03:34:17;10.32;;;5.72;;
64875;SDS011;51369;49.862;9.908;2024-02-16T03:36:43;8.05;;;5.38;;
64875;SDS011;51369;49.862;9.908;2024-02-16T03:39:08;8.93;;;5.32;;
64875;SDS011;51369;49.862;9.908;2024-02-16T03:41:35;11.10;;;5.60;;
64875;SDS011;51369;49.862;9.908;2024-02-16T03:44:00;9.45;;;5.88;;
64875;SDS011;51369;49.862;9.908;2024-02-16T03:46:26;7.65;;;5.32;;
64875;SDS011;51369;49.862;9.908;2024-02-16T03:48:51;6.85;;;4.82;;
64875;SDS011;51369;49.862;9.908;2024-02-16T03:51:17;7.10;;;5.20;;
64875;SDS011;51369;49.862;9.908;2024-02-16T03:53:43;9.20;;;5.72;;
64875;SDS011;51369;49.862;9.908;2024-02-16T03:56:10;10.13;;;5.57;;
64875;SDS011;51369;49.862;9.908;2024-02-16T03:58:37;7.43;;;5.32;;
64875;SDS011;51369;49.862;9.908;2024-02-16T04:01:03;9.27;;;5.00;;
64875;SDS011;51369;49.862;9.908;2024-02-16T04:03:32;7.30;;;5.00;;
64875;SDS011;51369;49.862;9.908;2024-02-16T04:05:57;8.20;;;5.20;;
64875;SDS011;51369;49.862;9.908;2024-02-16T04:08:24;10.55;;;6.05;;
64875;SDS011;51369;49.862;9.908;2024-02-16T04:10:50;6.75;;;5.57;;
64875;SDS011;51369;49.862;9.908;2024-02-16T04:13:15;7.07;;;5.05;;
64875;SDS011;51369;49.862;9.908;2024-02-16T04:15:40;8.43;;;5.43;;
64875;SDS011;51369;49.862;9.908;2024-02-16T04:18:06;7.35;;;5.35;;
64875;SDS011;51369;49.862;9.908;2024-02-16T04:20:32;8.18;;;5.50;;
64875;SDS011;51369;49.862;9.908;2024-02-16T04:22:57;11.55;;;5.20;;
64875;SDS011;51369;49.862;9.908;2024-02-16T04:25:23;9.30;;;5.35;;
64875;SDS011;51369;49.862;9.908;2024-02-16T04:27:49;6.03;;;4.93;;
64875;SDS011;51369;49.862;9.908;2024-02-16T04:30:14;8.57;;;5.05;;
64875;SDS011;51369;49.862;9.908;2024-02-16T04:32:40;9.85;;;5.07;;
64875;SDS011;51369;49.862;9.908;2024-02-16T04:35:06;7.53;;;5.60;;
64875;SDS011;51369;49.862;9.908;2024-02-16T04:37:31;8.82;;;5.95;;
64875;SDS011;51369;49.862;9.908;2024-02-16T04:39:56;9.43;;;5.25;;
64875;SDS011;51369;49.862;9.908;2024-02-16T04:42:22;8.45;;;5.45;;
64875;SDS011;51369;49.862;9.908;2024-02-16T04:44:47;7.18;;;5.35;;
64875;SDS011;51369;49.862;9.908;2024-02-16T04:47:13;9.07;;;5.05;;
64875;SDS011;51369;49.862;9.908;2024-02-16T04:49:39;6.00;;;4.82;;
64875;SDS011;51369;49.862;9.908;2024-02-16T04:52:04;8.50;;;4.95;;
64875;SDS011;51369;49.862;9.908;2024-02-16T04:54:30;9.88;;;5.63;;
64875;SDS011;51369;49.862;9.908;2024-02-16T04:56:55;8.55;;;5.80;;
64875;SDS011;51369;49.862;9.908;2024-02-16T04:59:21;10.13;;;6.20;;
64875;SDS011;51369;49.862;9.908;2024-02-16T05:01:46;8.80;;;5.50;;
64875;SDS011;51369;49.862;9.908;2024-02-16T05:04:12;7.40;;;5.40;;
64875;SDS011;51369;49.862;9.908;2024-02-16T05:06:42;10.45;;;5.50;;
64875;SDS011;51369;49.862;9.908;2024-02-16T05:09:08;10.02;;;4.90;;
64875;SDS011;51369;49.862;9.908;2024-02-16T05:11:34;6.93;;;4.57;;
64875;SDS011;51369;49.862;9.908;2024-02-16T05:14:00;8.30;;;4.80;;
64875;SDS011;51369;49.862;9.908;2024-02-16T05:16:26;9.13;;;4.30;;
64875;SDS011;51369;49.862;9.908;2024-02-16T05:18:52;9.38;;;5.47;;
64875;SDS011;51369;49.862;9.908;2024-02-16T05:21:18;5.97;;;4.85;;
64875;SDS011;51369;49.862;9.908;2024-02-16T05:23:43;7.75;;;4.75;;
64875;SDS011;51369;49.862;9.908;2024-02-16T05:26:09;7.43;;;5.20;;
64875;SDS011;51369;49.862;9.908;2024-02-16T05:28:34;10.82;;;5.70;;
64875;SDS011;51369;49.862;9.908;2024-02-16T05:31:04;9.80;;;5.63;;
64875;SDS011;51369;49.862;9.908;2024-02-16T05:33:39;7.32;;;5.22;;
64875;SDS011;51369;49.862;9.908;2024-02-16T05:36:05;6.82;;;5.32;;
64875;SDS011;51369;49.862;9.908;2024-02-16T05:38:32;7.90;;;5.25;;
64875;SDS011;51369;49.862;9.908;2024-02-16T05:40:59;11.95;;;5.90;;
64875;SDS011;51369;49.862;9.908;2024-02-16T05:43:25;12.05;;;6.32;;
64875;SDS011;51369;49.862;9.908;2024-02-16T05:45:50;8.65;;;5.57;;
64875;SDS011;51369;49.862;9.908;2024-02-16T05:48:15;9.68;;;6.35;;
64875;SDS011;51369;49.862;9.908;2024-02-16T05:50:41;14.38;;;6.88;;
64875;SDS011;51369;49.862;9.908;2024-02-16T05:53:08;20.83;;;10.57;;
64875;SDS011;51369;49.862;9.908;2024-02-16T05:55:35;22.92;;;9.57;;
64875;SDS011;51369;49.862;9.908;2024-02-16T05:58:01;25.92;;;12.43;;
64875;SDS011;51369;49.862;9.908;2024-02-16T06:00:26;25.52;;;13.15;;
64875;SDS011;51369;49.862;9.908;2024-02-16T06:02:52;25.83;;;13.30;;
64875;SDS011;51369;49.862;9.908;2024-02-16T06:05:18;25.58;;;12.38;;
64875;SDS011;51369;49.862;9.908;2024-02-16T06:07:45;19.52;;;11.35;;
64875;SDS011;51369;49.862;9.908;2024-02-16T06:10:10;18.27;;;11.05;;
64875;SDS011;51369;49.862;9.908;2024-02-16T06:12:37;17.33;;;9.80;;
64875;SDS011;51369;49.862;9.908;2024-02-16T06:15:05;13.13;;;8.90;;
64875;SDS011;51369;49.862;9.908;2024-02-16T06:17:31;11.90;;;7.80;;
64875;SDS011;51369;49.862;9.908;2024-02-16T06:19:57;13.52;;;9.00;;
64875;SDS011;51369;49.862;9.908;2024-02-16T06:22:23;14.18;;;8.88;;
64875;SDS011;51369;49.862;9.908;2024-02-16T06:24:49;13.98;;;8.95;;
64875;SDS011;51369;49.862;9.908;2024-02-16T06:27:14;15.88;;;9.70;;
64875;SDS011;51369;49.862;9.908;2024-02-16T06:29:40;15.10;;;8.32;;
64875;SDS011;51369;49.862;9.908;2024-02-16T06:32:06;15.10;;;9.52;;
64875;SDS011;51369;49.862;9.908;2024-02-16T06:34:32;17.33;;;9.88;;
64875;SDS011;51369;49.862;9.908;2024-02-16T06:36:57;18.73;;;9.88;;
64875;SDS011;51369;49.862;9.908;2024-02-16T06:39:23;17.90;;;9.82;;
64875;SDS011;51369;49.862;9.908;2024-02-16T06:41:48;11.85;;;8.80;;
64875;SDS011;51369;49.862;9.908;2024-02-16T06:44:17;13.50;;;9.10;;
64875;SDS011;51369;49.862;9.908;2024-02-16T06:46:42;11.68;;;8.40;;
64875;SDS011;51369;49.862;9.908;2024-02-16T06:49:08;11.50;;;8.50;;
64875;SDS011;51369;49.862;9.908;2024-02-16T06:51:35;19.27;;;10.63;;
64875;SDS011;51369;49.862;9.908;2024-02-16T06:54:02;17.42;;;10.55;;
64875;SDS011;51369;49.862;9.908;2024-02-16T06:56:27;15.07;;;9.52;;
64875;SDS011;51369;49.862;9.908;2024-02-16T06:58:52;15.25;;;9.32;;
64875;SDS011;51369;49.862;9.908;2024-02-16T07:01:19;14.13;;;8.82;;
64875;SDS011;51369;49.862;9.908;2024-02-16T07:03:44;13.38;;;7.90;;
64875;SDS011;51369;49.862;9.908;2024-02-16T07:06:10;16.05;;;8.40;;
64875;SDS011;51369;49.862;9.908;2024-02-16T07:08:41;17.08;;;8.15;;
64875;SDS011;51369;49.862;9.908;2024-02-16T07:11:08;15.25;;;8.98;;
64875;SDS011;51369;49.862;9.908;2024-02-16T07:13:37;15.43;;;8.27;;
64875;SDS011;51369;49.862;9.908;2024-02-16T07:16:03;10.40;;;8.30;;
64875;SDS011;51369;49.862;9.908;2024-02-16T07:18:29;15.32;;;8.52;;
64875;SDS011;51369;49.862;9.908;2024-02-16T07:20:55;11.32;;;8.70;;
64875;SDS011;51369;49.862;9.908;2024-02-16T07:23:21;12.63;;;8.60;;
64875;SDS011;51369;49.862;9.908;2024-02-16T07:25:46;12.02;;;8.40;;
64875;SDS011;51369;49.862;9.908;2024-02-16T07:28:13;14.02;;;8.35;;
64875;SDS011;51369;49.862;9.908;2024-02-16T07:30:39;14.10;;;9.02;;
64875;SDS011;51369;49.862;9.908;2024-02-16T07:33:04;17.20;;;10.85;;
64875;SDS011;51369;49.862;9.908;2024-02-16T07:35:30;16.92;;;10.35;;
64875;SDS011;51369;49.862;9.908;2024-02-16T07:37:56;20.58;;;11.98;;
64875;SDS011;51369;49.862;9.908;2024-02-16T07:40:21;23.08;;;11.93;;
64875;SDS011;51369;49.862;9.908;2024-02-16T07:42:47;19.50;;;12.45;;
64875;SDS011;51369;49.862;9.908;2024-02-16T07:45:12;16.70;;;12.10;;
64875;SDS011;51369;49.862;9.908;2024-02-16T07:47:40;18.98;;;11.25;;
64875;SDS011;51369;49.862;9.908;2024-02-16T07:50:06;19.52;;;12.48;;
64875;SDS011;51369;49.862;9.908;2024-02-16T07:52:31;15.98;;;11.27;;
64875;SDS011;51369;49.862;9.908;2024-02-16T07:54:58;17.95;;;11.32;;
64875;SDS011;51369;49.862;9.908;2024-02-16T07:57:24;16.15;;;11.18;;
64875;SDS011;51369;49.862;9.908;2024-02-16T07:59:50;18.00;;;11.25;;
64875;SDS011;51369;49.862;9.908;2024-02-16T08:02:15;19.85;;;12.13;;
64875;SDS011;51369;49.862;9.908;2024-02-16T08:04:42;17.73;;;11.85;;
64875;SDS011;51369;49.862;9.908;2024-02-16T08:07:11;16.73;;;11.10;;
64875;SDS011;51369;49.862;9.908;2024-02-16T08:09:37;16.55;;;11.65;;
64875;SDS011;51369;49.862;9.908;2024-02-16T08:12:02;16.35;;;11.02;;
64875;SDS011;51369;49.862;9.908;2024-02-16T08:14:30;15.82;;;10.23;;
64875;SDS011;51369;49.862;9.908;2024-02-16T08:16:57;14.65;;;10.98;;
64875;SDS011;51369;49.862;9.908;2024-02-16T08:19:23;14.65;;;10.63;;
64875;SDS011;51369;49.862;9.908;2024-02-16T08:22:00;15.68;;;11.65;;
64875;SDS011;51369;49.862;9.908;2024-02-16T08:24:27;14.75;;;11.05;;
64875;SDS011;51369;49.862;9.908;2024-02-16T08:26:52;16.55;;;11.70;;
64875;SDS011;51369;49.862;9.908;2024-02-16T08:29:17;16.48;;;10.88;;
64875;SDS011;51369;49.862;9.908;2024-02-16T08:31:43;16.70;;;10.85;;
64875;SDS011;51369;49.862;9.908;2024-02-16T08:34:09;14.70;;;10.50;;
64875;SDS011;51369;49.862;9.908;2024-02-16T08:36:35;13.98;;;10.38;;
64875;SDS011;51369;49.862;9.908;2024-02-16T08:39:01;15.13;;;10.57;;
64875;SDS011;51369;49.862;9.908;2024-02-16T08:41:26;15.60;;;11.98;;
64875;SDS011;51369;49.862;9.908;2024-02-16T08:43:52;15.90;;;10.40;;
64875;SDS011;51369;49.862;9.908;2024-02-16T08:46:18;17.20;;;11.23;;
64875;SDS011;51369;49.862;9.908;2024-02-16T08:48:46;15.55;;;9.75;;
64875;SDS011;51369;49.862;9.908;2024-02-16T08:51:12;14.95;;;9.48;;
64875;SDS011;51369;49.862;9.908;2024-02-16T08:53:38;18.52;;;9.30;;
64875;SDS011;51369;49.862;9.908;2024-02-16T08:56:08;13.52;;;9.75;;
64875;SDS011;51369;49.862;9.908;2024-02-16T08:58:35;17.25;;;9.45;;
64875;SDS011;51369;49.862;9.908;2024-02-16T09:01:01;18.92;;;10.48;;
64875;SDS011;51369;49.862;9.908;2024-02-16T09:03:26;13.45;;;9.65;;
64875;SDS011;51369;49.862;9.908;2024-02-16T09:05:52;13.18;;;9.68;;
64875;SDS011;51369;49.862;9.908;2024-02-16T09:08:17;13.05;;;9.70;;
64875;SDS011;51369;49.862;9.908;2024-02-16T09:10:43;12.15;;;9.20;;
64875;SDS011;51369;49.862;9.908;2024-02-16T09:13:08;16.65;;;10.02;;
64875;SDS011;51369;49.862;9.908;2024-02-16T09:15:34;11.48;;;8.48;;
64875;SDS011;51369;49.862;9.908;2024-02-16T09:18:00;15.57;;;9.52;;
64875;SDS011;51369;49.862;9.908;2024-02-16T09:20:25;14.77;;;9.40;;
64875;SDS011;51369;49.862;9.908;2024-02-16T09:22:51;12.50;;;8.50;;
64875;SDS011;51369;49.862;9.908;2024-02-16T09:25:16;15.10;;;9.15;;
64875;SDS011;51369;49.862;9.908;2024-02-16T09:27:41;14.88;;;9.05;;
64875;SDS011;51369;49.862;9.908;2024-02-16T09:30:11;10.88;;;8.70;;
64875;SDS011;51369;49.862;9.908;2024-02-16T09:32:40;14.13;;;9.10;;
64875;SDS011;51369;49.862;9.908;2024-02-16T09:35:07;13.95;;;9.05;;
64875;SDS011;51369;49.862;9.908;2024-02-16T09:37:33;11.38;;;8.57;;
64875;SDS011;51369;49.862;9.908;2024-02-16T09:39:59;16.00;;;8.73;;
64875;SDS011;51369;49.862;9.908;2024-02-16T09:42:24;15.18;;;9.05;;
64875;SDS011;51369;49.862;9.908;2024-02-16T09:44:54;17.38;;;8.77;;
64875;SDS011;51369;49.862;9.908;2024-02-16T09:47:19;12.85;;;7.88;;
64875;SDS011;51369;49.862;9.908;2024-02-16T09:49:47;12.10;;;8.18;;
64875;SDS011;51369;49.862;9.908;2024-02-16T09:52:13;10.57;;;8.30;;
64875;SDS011;51369;49.862;9.908;2024-02-16T09:54:38;11.02;;;7.85;;
64875;SDS011;51369;49.862;9.908;2024-02-16T09:57:05;12.80;;;7.95;;
64875;SDS011;51369;49.862;9.908;2024-02-16T09:59:30;13.35;;;7.90;;
64875;SDS011;51369;49.862;9.908;2024-02-16T10:02:03;12.60;;;7.78;;
64875;SDS011;51369;49.862;9.908;2024-02-16T10:04:29;13.93;;;7.82;;
64875;SDS011;51369;49.862;9.908;2024-02-16T10:06:55;11.57;;;7.88;;
64875;SDS011;51369;49.862;9.908;2024-02-16T10:09:22;8.95;;;7.30;;
64875;SDS011;51369;49.862;9.908;2024-02-16T10:11:49;9.02;;;6.85;;
64875;SDS011;51369;49.862;9.908;2024-02-16T10:14:14;7.65;;;6.50;;
64875;SDS011;51369;49.862;9.908;2024-02-16T10:16:39;14.95;;;6.35;;
64875;SDS011;51369;49.862;9.908;2024-02-16T10:19:05;9.07;;;6.20;;
64875;SDS011;51369;49.862;9.908;2024-02-16T10:21:32;10.02;;;6.72;;
64875;SDS011;51369;49.862;9.908;2024-02-16T10:26:39;13.57;;;6.68;;
64875;SDS011;51369;49.862;9.908;2024-02-16T10:29:05;10.93;;;6.38;;
64875;SDS011;51369;49.862;9.908;2024-02-16T10:31:33;6.57;;;5.70;;
64875;SDS011;51369;49.862;9.908;2024-02-16T10:34:02;10.13;;;6.70;;
64875;SDS011;51369;49.862;9.908;2024-02-16T10:36:38;9.85;;;6.25;;
64875;SDS011;51369;49.862;9.908;2024-02-16T10:39:05;8.02;;;6.15;;
64875;SDS011;51369;49.862;9.908;2024-02-16T10:41:35;7.57;;;5.90;;
64875;SDS011;51369;49.862;9.908;2024-02-16T10:44:02;8.63;;;5.55;;
64875;SDS011;51369;49.862;9.908;2024-02-16T10:46:29;9.52;;;5.53;;
64875;SDS011;51369;49.862;9.908;2024-02-16T10:48:55;12.57;;;5.47;;
64875;SDS011;51369;49.862;9.908;2024-02-16T10:51:30;11.88;;;5.35;;
64875;SDS011;51369;49.862;9.908;2024-02-16T10:54:03;7.93;;;5.43;;
64875;SDS011;51369;49.862;9.908;2024-02-16T10:56:34;7.65;;;4.43;;
64875;SDS011;51369;49.862;9.908;2024-02-16T10:59:03;7.03;;;4.40;;
64875;SDS011;51369;49.862;9.908;2024-02-16T11:01:36;5.80;;;4.25;;
64875;SDS011;51369;49.862;9.908;2024-02-16T11:04:04;8.13;;;5.00;;
64875;SDS011;51369;49.862;9.908;2024-02-16T11:06:43;9.60;;;4.55;;
64875;SDS011;51369;49.862;9.908;2024-02-16T11:09:22;7.32;;;4.30;;
64875;SDS011;51369;49.862;9.908;2024-02-16T11:11:51;10.00;;;4.85;;
64875;SDS011;51369;49.862;9.908;2024-02-16T11:14:17;6.05;;;4.30;;
64875;SDS011;51369;49.862;9.908;2024-02-16T11:16:43;6.57;;;4.40;;
64875;SDS011;51369;49.862;9.908;2024-02-16T11:19:10;6.85;;;4.07;;
64875;SDS011;51369;49.862;9.908;2024-02-16T11:21:35;9.40;;;3.70;;
64875;SDS011;51369;49.862;9.908;2024-02-16T11:24:07;6.45;;;3.67;;
64875;SDS011;51369;49.862;9.908;2024-02-16T11:26:41;12.27;;;3.90;;
64875;SDS011;51369;49.862;9.908;2024-02-16T11:29:08;5.88;;;3.40;;
64875;SDS011;51369;49.862;9.908;2024-02-16T11:31:35;6.38;;;3.83;;
64875;SDS011;51369;49.862;9.908;2024-02-16T11:34:00;5.40;;;3.30;;
64875;SDS011;51369;49.862;9.908;2024-02-16T11:36:26;7.80;;;3.33;;
64875;SDS011;51369;49.862;9.908;2024-02-16T11:38:52;3.40;;;2.97;;
64875;SDS011;51369;49.862;9.908;2024-02-16T11:41:18;6.32;;;3.30;;
64875;SDS011;51369;49.862;9.908;2024-02-16T11:43:46;5.65;;;3.42;;
64875;SDS011;51369;49.862;9.908;2024-02-16T11:46:12;6.80;;;3.13;;
64875;SDS011;51369;49.862;9.908;2024-02-16T11:48:42;5.15;;;2.53;;
64875;SDS011;51369;49.862;9.908;2024-02-16T11:51:08;4.40;;;2.80;;
64875;SDS011;51369;49.862;9.908;2024-02-16T11:53:33;3.20;;;2.20;;
64875;SDS011;51369;49.862;9.908;2024-02-16T11:55:59;4.32;;;2.50;;
64875;SDS011;51369;49.862;9.908;2024-02-16T11:58:25;4.60;;;2.22;;
64875;SDS011;51369;49.862;9.908;2024-02-16T12:00:51;2.92;;;2.15;;
64875;SDS011;51369;49.862;9.908;2024-02-16T12:03:23;3.15;;;2.30;;
64875;SDS011;51369;49.862;9.908;2024-02-16T12:05:50;4.75;;;2.17;;
64875;SDS011;51369;49.862;9.908;2024-02-16T12:08:20;4.63;;;2.40;;
64875;SDS011;51369;49.862;9.908;2024-02-16T12:10:50;4.55;;;2.30;;
64875;SDS011;51369;49.862;9.908;2024-02-16T12:13:17;5.00;;;2.78;;
64875;SDS011;51369;49.862;9.908;2024-02-16T12:15:50;4.78;;;2.20;;
64875;SDS011;51369;49.862;9.908;2024-02-16T12:18:20;2.80;;;2.28;;
64875;SDS011;51369;49.862;9.908;2024-02-16T12:21:05;2.95;;;2.03;;
64875;SDS011;51369;49.862;9.908;2024-02-16T12:23:32;4.70;;;2.58;;
64875;SDS011;51369;49.862;9.908;2024-02-16T12:25:58;3.90;;;2.45;;
64875;SDS011;51369;49.862;9.908;2024-02-16T12:28:25;4.47;;;2.20;;
64875;SDS011;51369;49.862;9.908;2024-02-16T12:30:53;3.45;;;2.25;;
64875;SDS011;51369;49.862;9.908;2024-02-16T12:33:20;3.15;;;2.38;;
64875;SDS011;51369;49.862;9.908;2024-02-16T12:35:49;3.40;;;2.38;;
64875;SDS011;51369;49.862;9.908;2024-02-16T12:38:14;5.40;;;2.53;;
64875;SDS011;51369;49.862;9.908;2024-02-16T12:40:42;5.38;;;2.50;;
64875;SDS011;51369;49.862;9.908;2024-02-16T12:43:09;5.20;;;2.70;;
64875;SDS011;51369;49.862;9.908;2024-02-16T12:45:36;6.90;;;3.00;;
64875;SDS011;51369;49.862;9.908;2024-02-16T12:48:02;6.10;;;2.38;;
64875;SDS011;51369;49.862;9.908;2024-02-16T12:50:28;3.47;;;2.13;;
64875;SDS011;51369;49.862;9.908;2024-02-16T12:52:54;6.00;;;2.50;;
64875;SDS011;51369;49.862;9.908;2024-02-16T12:55:19;4.25;;;2.20;;
64875;SDS011;51369;49.862;9.908;2024-02-16T12:57:45;4.57;;;2.65;;
64875;SDS011;51369;49.862;9.908;2024-02-16T13:00:10;5.10;;;2.45;;
64875;SDS011;51369;49.862;9.908;2024-02-16T13:02:36;4.95;;;2.10;;
64875;SDS011;51369;49.862;9.908;2024-02-16T13:05:02;9.68;;;2.22;;
64875;SDS011;51369;49.862;9.908;2024-02-16T13:07:27;5.40;;;3.00;;
64875;SDS011;51369;49.862;9.908;2024-02-16T13:09:52;3.80;;;2.10;;
64875;SDS011;51369;49.862;9.908;2024-02-16T13:12:18;6.25;;;2.28;;
64875;SDS011;51369;49.862;9.908;2024-02-16T13:14:47;4.85;;;2.70;;
64875;SDS011;51369;49.862;9.908;2024-02-16T13:17:13;4.32;;;2.40;;
64875;SDS011;51369;49.862;9.908;2024-02-16T13:19:38;6.82;;;2.40;;
64875;SDS011;51369;49.862;9.908;2024-02-16T13:22:03;4.55;;;2.60;;
64875;SDS011;51369;49.862;9.908;2024-02-16T13:24:29;5.57;;;2.70;;
64875;SDS011;51369;49.862;9.908;2024-02-16T13:26:54;6.68;;;2.28;;
64875;SDS011;51369;49.862;9.908;2024-02-16T13:29:21;6.80;;;2.67;;
64875;SDS011;51369;49.862;9.908;2024-02-16T13:31:46;6.32;;;2.80;;
64875;SDS011;51369;49.862;9.908;2024-02-16T13:34:12;7.50;;;2.35;;
64875;SDS011;51369;49.862;9.908;2024-02-16T13:36:40;5.68;;;2.58;;
64875;SDS011;51369;49.862;9.908;2024-02-16T13:39:06;5.30;;;2.08;;
64875;SDS011;51369;49.862;9.908;2024-02-16T13:41:32;7.20;;;2.83;;
64875;SDS011;51369;49.862;9.908;2024-02-16T13:43:58;4.93;;;2.28;;
64875;SDS011;51369;49.862;9.908;2024-02-16T13:46:23;6.00;;;2.80;;
64875;SDS011;51369;49.862;9.908;2024-02-16T13:48:49;3.42;;;2.05;;
64875;SDS011;51369;49.862;9.908;2024-02-16T13:51:14;5.38;;;2.30;;
64875;SDS011;51369;49.862;9.908;2024-02-16T13:53:39;5.85;;;2.20;;
64875;SDS011;51369;49.862;9.908;2024-02-16T13:56:05;6.22;;;2.38;;
64875;SDS011;51369;49.862;9.908;2024-02-16T13:58:31;5.47;;;2.58;;
64875;SDS011;51369;49.862;9.908;2024-02-16T14:00:58;5.80;;;2.53;;
64875;SDS011;51369;49.862;9.908;2024-02-16T14:03:24;6.88;;;2.50;;
64875;SDS011;51369;49.862;9.908;2024-02-16T14:05:50;3.92;;;2.05;;
64875;SDS011;51369;49.862;9.908;2024-02-16T14:08:17;7.20;;;2.33;;
64875;SDS011;51369;49.862;9.908;2024-02-16T14:10:42;7.45;;;2.58;;
64875;SDS011;51369;49.862;9.908;2024-02-16T14:13:08;6.00;;;2.90;;
64875;SDS011;51369;49.862;9.908;2024-02-16T14:15:34;5.45;;;2.60;;
64875;SDS011;51369;49.862;9.908;2024-02-16T14:18:00;4.15;;;2.63;;
64875;SDS011;51369;49.862;9.908;2024-02-16T14:20:25;4.07;;;2.38;;
64875;SDS011;51369;49.862;9.908;2024-02-16T14:22:51;9.07;;;3.00;;
64875;SDS011;51369;49.862;9.908;2024-02-16T14:25:16;6.57;;;2.40;;
64875;SDS011;51369;49.862;9.908;2024-02-16T14:27:43;7.10;;;2.60;;
64875;SDS011;51369;49.862;9.908;2024-02-16T14:30:10;5.85;;;2.80;;
64875;SDS011;51369;49.862;9.908;2024-02-16T14:32:37;6.50;;;3.10;;
64875;SDS011;51369;49.862;9.908;2024-02-16T14:35:02;4.85;;;2.63;;
64875;SDS011;51369;49.862;9.908;2024-02-16T14:37:30;6.88;;;2.72;;